Costa Luminosa — ICGU — position and weather

sailwx.info

Track history (hours):
 
Tides and Currents Weather Stations Pressure Air Temp Water Temp Dewpoint Dewpoint Depression Visibility Wind Speed Wind Dir Waves Ship Positions

Costa Luminosa

Last reported at 2014-Oct-22 22:34 UTC. Time now 2014-Oct-22 23:18 UTC.
Position N 43°09' E 006°58'.

Length 294 m; draft 8.1 m.

Type: Passenger vessel. MMSI: 247257900.

Date/timePositionNaut miles runAvg speedWind from/ knotsBaromVisibWave heightAir tempDewpointWater temp
2014-Oct-22 22:34N 43°09' E 006°58'1414.5
2014-Oct-22 21:34N 43°00' E 006°42'1613.9
2014-Oct-22 20:23N 42°56' E 006°20'1214.8
2014-Oct-22 19:34N 42°57' E 006°04'1515.0
2014-Oct-22 18:33N 43°02' E 005°44'2217.8
2014-Oct-22 17:20N 43°12' E 005°18'912.1
2014-Oct-22 16:33N 43°21' E 005°17'0 0.0
2014-Oct-22 15:20N 43°21' E 005°18'0 0.1
2014-Oct-22 14:20N 43°21' E 005°18'0 0.0
2014-Oct-22 13:32N 43°21' E 005°18'0 0.0
2014-Oct-22 12:23N 43°21' E 005°18'0 0.0
2014-Oct-22 11:20N 43°21' E 005°18'0 0.1
2014-Oct-22 10:26N 43°21' E 005°18'0 0.0
2014-Oct-22 09:26N 43°21' E 005°18'0 0.0
2014-Oct-22 08:26N 43°21' E 005°18'0 0.0
2014-Oct-22 07:26N 43°21' E 005°18'0 0.0
2014-Oct-22 06:33N 43°21' E 005°17'5 4.8
2014-Oct-22 05:33N 43°18' E 005°13'9 8.8
2014-Oct-22 04:34N 43°10' E 005°07'1817.5
2014-Oct-22 03:32N 43°04' E 004°44'9318.2
2014-Oct-21 22:25N 41°57' E 003°17'2216.5
2014-Oct-21 21:04N 41°38' E 003°00'1618.3
2014-Oct-21 20:11N 41°29' E 002°43'1618.2
2014-Oct-21 19:19N 41°20' E 002°25'1112.0
2014-Oct-21 18:22N 41°19' E 002°10'4 0.5
2014-Oct-21 10:21N 41°16' E 002°12'1515.3
2014-Oct-21 09:24N 41°21' E 002°30'1315.5
2014-Oct-21 08:33N 41°27' E 002°46'1815.8
2014-Oct-21 07:25N 41°35' E 003°07'1616.2
2014-Oct-21 06:27N 41°43' E 003°26'10718.0
2014-Oct-21 00:30N 42°32' E 005°33'1818.8
2014-Oct-20 23:33N 42°40' E 005°55'2818.9
2014-Oct-20 22:04N 42°53' E 006°29'1019.1
2014-Oct-20 21:34N 42°59' E 006°40'1919.1
2014-Oct-20 20:33N 43°11' E 006°60'1918.8
2014-Oct-20 19:33N 43°22' E 007°21'1918.7
2014-Oct-20 18:33N 43°34' E 007°41'4219.0
2014-Oct-20 16:22N 44°03' E 008°22'1417.7
2014-Oct-20 15:34N 44°16' E 008°31'3 3.1
2014-Oct-20 14:33N 44°19' E 008°29'0 0.0
2014-Oct-20 13:33N 44°19' E 008°29'0 0.0
2014-Oct-20 12:33N 44°19' E 008°29'0 0.0
2014-Oct-20 11:33N 44°19' E 008°29'0 0.0
2014-Oct-20 10:33N 44°19' E 008°29'0 0.0
2014-Oct-20 09:33N 44°19' E 008°29'0 0.0
2014-Oct-20 08:33N 44°19' E 008°29'0 0.0
2014-Oct-20 07:33N 44°19' E 008°29'0 0.0
2014-Oct-20 06:30N 44°19' E 008°29'3 2.9
2014-Oct-20 05:32N 44°17' E 008°32'1413.9
2014-Oct-20 04:31N 44°04' E 008°23'1515.4
2014-Oct-20 03:33N 43°52' E 008°12'3415.6
2014-Oct-20 01:24N 43°31' E 007°36'1416.1
2014-Oct-20 00:32N 43°22' E 007°21'1515.5
2014-Oct-19 23:33N 43°13' E 007°04'1515.3
2014-Oct-19 22:33N 43°04' E 006°47'1514.6
2014-Oct-19 21:33N 42°56' E 006°30'1615.5
2014-Oct-19 20:32N 42°56' E 006°09'1616.1
2014-Oct-19 19:32N 43°01' E 005°48'1716.6
2014-Oct-19 18:32N 43°06' E 005°26'1414.7
2014-Oct-19 17:33N 43°18' E 005°16'3 0.4
2014-Oct-19 10:10N 43°21' E 005°19'5 8.7
2014-Oct-19 09:34N 43°18' E 005°13'1212.1
2014-Oct-19 08:33N 43°07' E 005°09'1312.6
2014-Oct-19 07:33N 42°56' E 004°59'1312.5
2014-Oct-19 06:33N 42°46' E 004°49'1312.5
2014-Oct-19 05:33N 42°35' E 004°41'2613.1
2014-Oct-19 03:32N 42°13' E 004°22'1414.1
2014-Oct-19 02:33N 42°01' E 004°12'1414.0
2014-Oct-19 01:33N 41°49' E 004°02'1514.2
2014-Oct-19 00:32N 41°37' E 003°52'1414.2
2014-Oct-18 23:33N 41°25' E 003°42'1615.0
2014-Oct-18 22:28N 41°11' E 003°31'1213.1
2014-Oct-18 21:32N 41°00' E 003°23'1514.0
2014-Oct-18 20:30N 40°48' E 003°13'2216.4
2014-Oct-18 19:08N 40°29' E 002°58'1015.8
2014-Oct-18 18:32N 40°21' E 002°51'1716.5
2014-Oct-18 17:32N 40°07' E 002°40'1516.0
2014-Oct-18 16:33N 39°53' E 002°29'1615.5
2014-Oct-18 15:34N 39°40' E 002°19'1312.8
2014-Oct-18 14:33N 39°28' E 002°23'1111.3
2014-Oct-18 13:33N 39°31' E 002°38'3 2.5
2014-Oct-18 12:31N 39°33' E 002°38'0 0.0
2014-Oct-18 11:33N 39°33' E 002°38'0 0.0
2014-Oct-18 10:33N 39°33' E 002°38'0 0.0
2014-Oct-18 09:31N 39°33' E 002°38'0 0.0
2014-Oct-18 08:18N 39°33' E 002°38'0 0.0
2014-Oct-18 07:33N 39°33' E 002°38'0 0.0
2014-Oct-18 06:33N 39°33' E 002°38'1 1.3
2014-Oct-18 05:33N 39°32' E 002°39'1110.9
2014-Oct-18 04:33N 39°24' E 002°30'1211.6
2014-Oct-18 03:33N 39°31' E 002°18'1010.5
2014-Oct-18 02:33N 39°41' E 002°15'1111.3
2014-Oct-18 01:33N 39°53' E 002°14'1211.5
2014-Oct-18 00:33N 40°04' E 002°14'1211.7
2014-Oct-17 23:33N 40°16' E 002°13'1211.9
2014-Oct-17 22:34N 40°28' E 002°13'1211.8
2014-Oct-17 21:34N 40°39' E 002°12'1212.0
2014-Oct-17 20:33N 40°51' E 002°12'1212.5
2014-Oct-17 19:33N 41°04' E 002°11'1312.6
2014-Oct-17 18:33N 41°17' E 002°11'4 3.7
2014-Oct-17 17:25N 41°21' E 002°10'0 0.0
2014-Oct-17 16:31N 41°21' E 002°10'0 0.0
2014-Oct-17 15:25N 41°21' E 002°10'0 0.0
2014-Oct-17 14:25N 41°21' E 002°10'0 0.0
2014-Oct-17 13:31N 41°21' E 002°10'0 0.0
2014-Oct-17 12:31N 41°21' E 002°10'1 0.8
2014-Oct-17 11:15N 41°20' E 002°10'4 6.3
2014-Oct-17 10:33N 41°16' E 002°12'1313.1
2014-Oct-17 09:33N 41°21' E 002°28'1413.8
2014-Oct-17 08:33N 41°27' E 002°45'1414.5
2014-Oct-17 07:33N 41°33' E 003°02'2116.4
2014-Oct-17 06:15N 41°43' E 003°28'1716.5
2014-Oct-17 05:13N 41°51' E 003°48'1115.6
2014-Oct-17 04:32N 41°56' E 004°01'1716.8
2014-Oct-17 03:33N 42°04' E 004°20'5917.7
2014-Oct-17 00:12N 42°32' E 005°31'5318.9
2014-Oct-16 21:22N 42°58' E 006°34'1619.2
2014-Oct-16 20:33N 43°06' E 006°53'2018.8
2014-Oct-16 19:31N 43°18' E 007°14'1818.6
2014-Oct-16 18:31N 43°30' E 007°34'4118.2
2014-Oct-16 16:16N 43°57' E 008°16'1317.9
2014-Oct-16 15:33N 44°08' E 008°26'1110.8
2014-Oct-16 14:31N 44°19' E 008°29'0 0.0
2014-Oct-16 13:28N 44°19' E 008°29'0 0.0
2014-Oct-16 12:31N 44°19' E 008°29'0 0.0
2014-Oct-16 11:31N 44°19' E 008°29'0 0.0
2014-Oct-16 10:28N 44°19' E 008°29'0 0.0
2014-Oct-16 09:31N 44°19' E 008°29'0 0.0
2014-Oct-16 08:31N 44°19' E 008°29'0 0.0
2014-Oct-16 07:31N 44°19' E 008°29'0 0.0
2014-Oct-16 06:32N 44°19' E 008°29'5 5.2
2014-Oct-16 05:33N 44°14' E 008°31'1212.4
2014-Oct-16 04:33N 44°03' E 008°22'1312.5
2014-Oct-16 03:33N 43°53' E 008°12'1212.5
2014-Oct-16 02:33N 43°44' E 007°60'1412.9
2014-Oct-16 01:28N 43°36' E 007°45'1212.9
2014-Oct-16 00:33N 43°28' E 007°32'1413.5
2014-Oct-15 23:33N 43°20' E 007°17'1514.9
2014-Oct-15 22:33N 43°11' E 007°01'1514.5
2014-Oct-15 21:33N 43°02' E 006°45'1413.9
2014-Oct-15 20:33N 42°56' E 006°28'1514.6
2014-Oct-15 19:33N 42°56' E 006°08'1615.7
2014-Oct-15 18:33N 43°01' E 005°47'1615.6
2014-Oct-15 17:33N 43°05' E 005°27'1514.8
2014-Oct-15 16:33N 43°17' E 005°15'5 2.1
2014-Oct-15 14:21N 43°21' E 005°20'0 0.0
2014-Oct-15 09:27N 43°21' E 005°20'5 5.9
2014-Oct-15 08:33N 43°18' E 005°14'1212.5
2014-Oct-15 07:33N 43°07' E 005°05'1313.0
2014-Oct-15 06:33N 42°58' E 004°52'1313.0
2014-Oct-15 05:33N 42°49' E 004°40'1313.5
2014-Oct-15 04:33N 42°39' E 004°27'11713.9
2014-Oct-14 20:10N 41°23' E 002°28'912.9
2014-Oct-14 19:28N 41°18' E 002°18'7 1.4
2014-Oct-14 14:27N 41°22' E 002°11'0 0.0
2014-Oct-14 13:33N 41°22' E 002°11'0 0.0
2014-Oct-14 12:32N 41°22' E 002°11'6 2.6
2014-Oct-14 10:19N 41°16' E 002°12'1114.9
2014-Oct-14 09:33N 41°19' E 002°27'1915.7
2014-Oct-14 08:22N 41°28' E 002°49'1416.0
2014-Oct-14 07:31N 41°35' E 003°05'2221.5
2014-Oct-14 06:28N 41°45' E 003°32'1915.6
2014-Oct-14 05:15N 41°54' E 003°54'1919.0
2014-Oct-14 04:16N 42°02' E 004°16'10918.4
2014-Oct-13 22:23N 42°53' E 006°27'1619.3
2014-Oct-13 21:33N 43°02' E 006°45'1919.2
2014-Oct-13 20:33N 43°13' E 007°06'1919.0
2014-Oct-13 19:33N 43°25' E 007°26'1918.9
2014-Oct-13 18:33N 43°37' E 007°47'2019.2
2014-Oct-13 17:31N 43°49' E 008°08'1919.2
2014-Oct-13 16:34N 44°04' E 008°23'1615.6
2014-Oct-13 15:34N 44°19' E 008°30'1 0.8
2014-Oct-13 14:28N 44°19' E 008°29'0 0.0
2014-Oct-13 13:31N 44°19' E 008°29'0 0.0
2014-Oct-13 12:31N 44°19' E 008°29'0 0.0
2014-Oct-13 11:31N 44°19' E 008°29'0 0.0
2014-Oct-13 10:31N 44°19' E 008°29'0 0.0
2014-Oct-13 09:31N 44°19' E 008°29'0 0.0
2014-Oct-13 08:25N 44°19' E 008°29'0 0.0
2014-Oct-13 07:28N 44°19' E 008°29'0 0.4
2014-Oct-13 06:33N 44°19' E 008°30'9 9.2
2014-Oct-13 05:33N 44°10' E 008°28'1814.6
2014-Oct-13 04:18N 43°54' E 008°15'2814.5
2014-Oct-13 02:23N 43°36' E 007°45'1214.6
2014-Oct-13 01:33N 43°29' E 007°32'1514.7
2014-Oct-13 00:33N 43°20' E 007°16'1414.5
2014-Oct-12 23:33N 43°11' E 007°01'  
Track history (hours):
 
Tides and Currents Weather Stations Pressure Air Temp Water Temp Dewpoint Dewpoint Depression Visibility Wind Speed Wind Dir Waves Ship Positions

Costa Luminosa

Last reported at 2014-Oct-22 22:34 UTC. Time now 2014-Oct-22 23:18 UTC.
Position N 43°09' E 006°58'.

Length 294 m; draft 8.1 m.

Type: Passenger vessel. MMSI: 247257900.

Date/timePositionNaut miles runAvg speedWind from/ knotsBaromVisibWave heightAir tempDewpointWater temp
2014-Oct-22 22:34N 43°09' E 006°58'1414.5
2014-Oct-22 21:34N 43°00' E 006°42'1613.9
2014-Oct-22 20:23N 42°56' E 006°20'1214.8
2014-Oct-22 19:34N 42°57' E 006°04'1515.0
2014-Oct-22 18:33N 43°02' E 005°44'2217.8
2014-Oct-22 17:20N 43°12' E 005°18'912.1
2014-Oct-22 16:33N 43°21' E 005°17'0 0.0
2014-Oct-22 15:20N 43°21' E 005°18'0 0.1
2014-Oct-22 14:20N 43°21' E 005°18'0 0.0
2014-Oct-22 13:32N 43°21' E 005°18'0 0.0
2014-Oct-22 12:23N 43°21' E 005°18'0 0.0
2014-Oct-22 11:20N 43°21' E 005°18'0 0.1
2014-Oct-22 10:26N 43°21' E 005°18'0 0.0
2014-Oct-22 09:26N 43°21' E 005°18'0 0.0
2014-Oct-22 08:26N 43°21' E 005°18'0 0.0
2014-Oct-22 07:26N 43°21' E 005°18'0 0.0
2014-Oct-22 06:33N 43°21' E 005°17'5 4.8
2014-Oct-22 05:33N 43°18' E 005°13'9 8.8
2014-Oct-22 04:34N 43°10' E 005°07'1817.5
2014-Oct-22 03:32N 43°04' E 004°44'9318.2
2014-Oct-21 22:25N 41°57' E 003°17'2216.5
2014-Oct-21 21:04N 41°38' E 003°00'1618.3
2014-Oct-21 20:11N 41°29' E 002°43'1618.2
2014-Oct-21 19:19N 41°20' E 002°25'1112.0
2014-Oct-21 18:22N 41°19' E 002°10'4 0.5
2014-Oct-21 10:21N 41°16' E 002°12'1515.3
2014-Oct-21 09:24N 41°21' E 002°30'1315.5
2014-Oct-21 08:33N 41°27' E 002°46'1815.8
2014-Oct-21 07:25N 41°35' E 003°07'1616.2
2014-Oct-21 06:27N 41°43' E 003°26'10718.0
2014-Oct-21 00:30N 42°32' E 005°33'1818.8
2014-Oct-20 23:33N 42°40' E 005°55'2818.9
2014-Oct-20 22:04N 42°53' E 006°29'1019.1
2014-Oct-20 21:34N 42°59' E 006°40'1919.1
2014-Oct-20 20:33N 43°11' E 006°60'1918.8
2014-Oct-20 19:33N 43°22' E 007°21'1918.7
2014-Oct-20 18:33N 43°34' E 007°41'4219.0
2014-Oct-20 16:22N 44°03' E 008°22'1417.7
2014-Oct-20 15:34N 44°16' E 008°31'3 3.1
2014-Oct-20 14:33N 44°19' E 008°29'0 0.0
2014-Oct-20 13:33N 44°19' E 008°29'0 0.0
2014-Oct-20 12:33N 44°19' E 008°29'0 0.0
2014-Oct-20 11:33N 44°19' E 008°29'0 0.0
2014-Oct-20 10:33N 44°19' E 008°29'0 0.0
2014-Oct-20 09:33N 44°19' E 008°29'0 0.0
2014-Oct-20 08:33N 44°19' E 008°29'0 0.0
2014-Oct-20 07:33N 44°19' E 008°29'0 0.0
2014-Oct-20 06:30N 44°19' E 008°29'3 2.9
2014-Oct-20 05:32N 44°17' E 008°32'1413.9
2014-Oct-20 04:31N 44°04' E 008°23'1515.4
2014-Oct-20 03:33N 43°52' E 008°12'3415.6
2014-Oct-20 01:24N 43°31' E 007°36'1416.1
2014-Oct-20 00:32N 43°22' E 007°21'1515.5
2014-Oct-19 23:33N 43°13' E 007°04'1515.3
2014-Oct-19 22:33N 43°04' E 006°47'1514.6
2014-Oct-19 21:33N 42°56' E 006°30'1615.5
2014-Oct-19 20:32N 42°56' E 006°09'1616.1
2014-Oct-19 19:32N 43°01' E 005°48'1716.6
2014-Oct-19 18:32N 43°06' E 005°26'1414.7
2014-Oct-19 17:33N 43°18' E 005°16'3 0.4
2014-Oct-19 10:10N 43°21' E 005°19'5 8.7
2014-Oct-19 09:34N 43°18' E 005°13'1212.1
2014-Oct-19 08:33N 43°07' E 005°09'1312.6
2014-Oct-19 07:33N 42°56' E 004°59'1312.5
2014-Oct-19 06:33N 42°46' E 004°49'1312.5
2014-Oct-19 05:33N 42°35' E 004°41'2613.1
2014-Oct-19 03:32N 42°13' E 004°22'1414.1
2014-Oct-19 02:33N 42°01' E 004°12'1414.0
2014-Oct-19 01:33N 41°49' E 004°02'1514.2
2014-Oct-19 00:32N 41°37' E 003°52'1414.2
2014-Oct-18 23:33N 41°25' E 003°42'1615.0
2014-Oct-18 22:28N 41°11' E 003°31'1213.1
2014-Oct-18 21:32N 41°00' E 003°23'1514.0
2014-Oct-18 20:30N 40°48' E 003°13'2216.4
2014-Oct-18 19:08N 40°29' E 002°58'1015.8
2014-Oct-18 18:32N 40°21' E 002°51'1716.5
2014-Oct-18 17:32N 40°07' E 002°40'1516.0
2014-Oct-18 16:33N 39°53' E 002°29'1615.5
2014-Oct-18 15:34N 39°40' E 002°19'1312.8
2014-Oct-18 14:33N 39°28' E 002°23'1111.3
2014-Oct-18 13:33N 39°31' E 002°38'3 2.5
2014-Oct-18 12:31N 39°33' E 002°38'0 0.0
2014-Oct-18 11:33N 39°33' E 002°38'0 0.0
2014-Oct-18 10:33N 39°33' E 002°38'0 0.0
2014-Oct-18 09:31N 39°33' E 002°38'0 0.0
2014-Oct-18 08:18N 39°33' E 002°38'0 0.0
2014-Oct-18 07:33N 39°33' E 002°38'0 0.0
2014-Oct-18 06:33N 39°33' E 002°38'1 1.3
2014-Oct-18 05:33N 39°32' E 002°39'1110.9
2014-Oct-18 04:33N 39°24' E 002°30'1211.6
2014-Oct-18 03:33N 39°31' E 002°18'1010.5
2014-Oct-18 02:33N 39°41' E 002°15'1111.3
2014-Oct-18 01:33N 39°53' E 002°14'1211.5
2014-Oct-18 00:33N 40°04' E 002°14'1211.7
2014-Oct-17 23:33N 40°16' E 002°13'1211.9
2014-Oct-17 22:34N 40°28' E 002°13'1211.8
2014-Oct-17 21:34N 40°39' E 002°12'1212.0
2014-Oct-17 20:33N 40°51' E 002°12'1212.5
2014-Oct-17 19:33N 41°04' E 002°11'1312.6
2014-Oct-17 18:33N 41°17' E 002°11'4 3.7
2014-Oct-17 17:25N 41°21' E 002°10'0 0.0
2014-Oct-17 16:31N 41°21' E 002°10'0 0.0
2014-Oct-17 15:25N 41°21' E 002°10'0 0.0
2014-Oct-17 14:25N 41°21' E 002°10'0 0.0
2014-Oct-17 13:31N 41°21' E 002°10'0 0.0
2014-Oct-17 12:31N 41°21' E 002°10'1 0.8
2014-Oct-17 11:15N 41°20' E 002°10'4 6.3
2014-Oct-17 10:33N 41°16' E 002°12'1313.1
2014-Oct-17 09:33N 41°21' E 002°28'1413.8
2014-Oct-17 08:33N 41°27' E 002°45'1414.5
2014-Oct-17 07:33N 41°33' E 003°02'2116.4
2014-Oct-17 06:15N 41°43' E 003°28'1716.5
2014-Oct-17 05:13N 41°51' E 003°48'1115.6
2014-Oct-17 04:32N 41°56' E 004°01'1716.8
2014-Oct-17 03:33N 42°04' E 004°20'5917.7
2014-Oct-17 00:12N 42°32' E 005°31'5318.9
2014-Oct-16 21:22N 42°58' E 006°34'1619.2
2014-Oct-16 20:33N 43°06' E 006°53'2018.8
2014-Oct-16 19:31N 43°18' E 007°14'1818.6
2014-Oct-16 18:31N 43°30' E 007°34'4118.2
2014-Oct-16 16:16N 43°57' E 008°16'1317.9
2014-Oct-16 15:33N 44°08' E 008°26'1110.8
2014-Oct-16 14:31N 44°19' E 008°29'0 0.0
2014-Oct-16 13:28N 44°19' E 008°29'0 0.0
2014-Oct-16 12:31N 44°19' E 008°29'0 0.0
2014-Oct-16 11:31N 44°19' E 008°29'0 0.0
2014-Oct-16 10:28N 44°19' E 008°29'0 0.0
2014-Oct-16 09:31N 44°19' E 008°29'0 0.0
2014-Oct-16 08:31N 44°19' E 008°29'0 0.0
2014-Oct-16 07:31N 44°19' E 008°29'0 0.0
2014-Oct-16 06:32N 44°19' E 008°29'5 5.2
2014-Oct-16 05:33N 44°14' E 008°31'1212.4
2014-Oct-16 04:33N 44°03' E 008°22'1312.5
2014-Oct-16 03:33N 43°53' E 008°12'1212.5
2014-Oct-16 02:33N 43°44' E 007°60'1412.9
2014-Oct-16 01:28N 43°36' E 007°45'1212.9
2014-Oct-16 00:33N 43°28' E 007°32'1413.5
2014-Oct-15 23:33N 43°20' E 007°17'1514.9
2014-Oct-15 22:33N 43°11' E 007°01'1514.5
2014-Oct-15 21:33N 43°02' E 006°45'1413.9
2014-Oct-15 20:33N 42°56' E 006°28'1514.6
2014-Oct-15 19:33N 42°56' E 006°08'1615.7
2014-Oct-15 18:33N 43°01' E 005°47'1615.6
2014-Oct-15 17:33N 43°05' E 005°27'1514.8
2014-Oct-15 16:33N 43°17' E 005°15'5 2.1
2014-Oct-15 14:21N 43°21' E 005°20'0 0.0
2014-Oct-15 09:27N 43°21' E 005°20'5 5.9
2014-Oct-15 08:33N 43°18' E 005°14'1212.5
2014-Oct-15 07:33N 43°07' E 005°05'1313.0
2014-Oct-15 06:33N 42°58' E 004°52'1313.0
2014-Oct-15 05:33N 42°49' E 004°40'1313.5
2014-Oct-15 04:33N 42°39' E 004°27'11713.9
2014-Oct-14 20:10N 41°23' E 002°28'912.9
2014-Oct-14 19:28N 41°18' E 002°18'7 1.4
2014-Oct-14 14:27N 41°22' E 002°11'0 0.0
2014-Oct-14 13:33N 41°22' E 002°11'0 0.0
2014-Oct-14 12:32N 41°22' E 002°11'6 2.6
2014-Oct-14 10:19N 41°16' E 002°12'1114.9
2014-Oct-14 09:33N 41°19' E 002°27'1915.7
2014-Oct-14 08:22N 41°28' E 002°49'1416.0
2014-Oct-14 07:31N 41°35' E 003°05'2221.5
2014-Oct-14 06:28N 41°45' E 003°32'1915.6
2014-Oct-14 05:15N 41°54' E 003°54'1919.0
2014-Oct-14 04:16N 42°02' E 004°16'10918.4
2014-Oct-13 22:23N 42°53' E 006°27'1619.3
2014-Oct-13 21:33N 43°02' E 006°45'1919.2
2014-Oct-13 20:33N 43°13' E 007°06'1919.0
2014-Oct-13 19:33N 43°25' E 007°26'1918.9
2014-Oct-13 18:33N 43°37' E 007°47'2019.2
2014-Oct-13 17:31N 43°49' E 008°08'1919.2
2014-Oct-13 16:34N 44°04' E 008°23'1615.6
2014-Oct-13 15:34N 44°19' E 008°30'1 0.8
2014-Oct-13 14:28N 44°19' E 008°29'0 0.0
2014-Oct-13 13:31N 44°19' E 008°29'0 0.0
2014-Oct-13 12:31N 44°19' E 008°29'0 0.0
2014-Oct-13 11:31N 44°19' E 008°29'0 0.0
2014-Oct-13 10:31N 44°19' E 008°29'0 0.0
2014-Oct-13 09:31N 44°19' E 008°29'0 0.0
2014-Oct-13 08:25N 44°19' E 008°29'0 0.0
2014-Oct-13 07:28N 44°19' E 008°29'0 0.4
2014-Oct-13 06:33N 44°19' E 008°30'9 9.2
2014-Oct-13 05:33N 44°10' E 008°28'1814.6
2014-Oct-13 04:18N 43°54' E 008°15'2814.5
2014-Oct-13 02:23N 43°36' E 007°45'1214.6
2014-Oct-13 01:33N 43°29' E 007°32'1514.7
2014-Oct-13 00:33N 43°20' E 007°16'1414.5
2014-Oct-12 23:33N 43°11' E 007°01'  

Dump ship's entire track history